createdAt,value
2022-10-17T03:55:12.541Z,101766.91
2022-10-17T03:58:15.054Z,101775.75
2022-10-17T04:01:18.562Z,101770.62
2022-10-17T04:04:21.737Z,101765.75
2022-10-17T04:07:23.887Z,101774.12
2022-10-17T04:10:26.213Z,101769.94
2022-10-17T04:13:28.967Z,101775.41
2022-10-17T04:16:31.700Z,101780.13
2022-10-17T04:19:34.195Z,101782.19
2022-10-17T04:22:37.048Z,101780.78
2022-10-17T04:25:39.361Z,101790.19
2022-10-17T04:28:41.766Z,101791.97
2022-10-17T04:31:44.389Z,101793.03
2022-10-17T04:34:50.425Z,101796.06
2022-10-17T04:37:55.234Z,101796.94
2022-10-17T04:41:03.205Z,101796.06
2022-10-17T04:44:05.807Z,101798.41
2022-10-17T04:47:08.512Z,101800.72
2022-10-17T04:50:10.722Z,101794.78
2022-10-17T04:53:14.657Z,101808.16
2022-10-17T04:56:22.153Z,101807.31
2022-10-17T04:59:24.522Z,101807.38
2022-10-17T05:02:28.086Z,101808.25
2022-10-17T05:05:31.487Z,101811.00
2022-10-17T05:08:34.243Z,101814.31
2022-10-17T05:11:36.893Z,101814.97
2022-10-17T05:14:39.811Z,101820.09
2022-10-17T05:17:42.379Z,101816.84
2022-10-17T05:20:46.050Z,101822.59
2022-10-17T05:23:48.429Z,101823.81
2022-10-17T05:26:51.881Z,101831.66
2022-10-17T05:29:54.609Z,101838.06
2022-10-17T05:32:58.692Z,101846.53
2022-10-17T05:36:02.380Z,101849.03
2022-10-17T05:39:04.730Z,101856.91
2022-10-17T05:42:07.589Z,101851.69
2022-10-17T05:45:10.638Z,101853.72
2022-10-17T05:48:12.984Z,101867.81
2022-10-17T05:51:15.054Z,101865.50
2022-10-17T05:54:19.332Z,101864.31
2022-10-17T05:57:21.441Z,101866.91
2022-10-17T06:00:24.226Z,101876.59
2022-10-17T06:03:26.866Z,101879.31
2022-10-17T06:06:29.148Z,101888.38
2022-10-17T06:09:31.605Z,101890.56
2022-10-17T06:12:33.905Z,101889.97
2022-10-17T06:15:36.485Z,101895.31
2022-10-17T06:18:39.228Z,101904.53
2022-10-17T06:21:41.661Z,101900.44
2022-10-17T06:24:44.259Z,101916.59
2022-10-17T06:27:47.339Z,101901.34
2022-10-17T06:30:49.433Z,101906.12
2022-10-17T06:33:51.861Z,101911.50
2022-10-17T06:36:54.029Z,101914.00
2022-10-17T06:39:56.509Z,101922.13
2022-10-17T06:42:58.749Z,101925.19
2022-10-17T06:46:01.075Z,101927.31
2022-10-17T06:49:04.832Z,101926.16
2022-10-17T06:52:10.265Z,101933.78
2022-10-17T06:55:14.880Z,101940.69
2022-10-17T06:58:19.215Z,101937.50
2022-10-17T07:01:22.613Z,101950.09
2022-10-17T07:04:25.720Z,101930.62
2022-10-17T07:07:31.626Z,101940.62
2022-10-17T07:10:38.280Z,101947.97
2022-10-17T07:13:40.811Z,101948.19
2022-10-17T07:16:43.749Z,101948.50
2022-10-17T07:19:49.536Z,101951.28
2022-10-17T07:22:51.909Z,101942.94
2022-10-17T07:25:59.874Z,101954.41
2022-10-17T07:29:02.358Z,101949.75
2022-10-17T07:32:08.587Z,101947.34
2022-10-17T07:35:12.023Z,101943.25
2022-10-17T07:38:14.742Z,101940.75
2022-10-17T07:41:20.937Z,101946.16
2022-10-17T07:44:24.771Z,101951.63
2022-10-17T07:47:27.575Z,101943.22
2022-10-17T07:50:31.666Z,101946.06
2022-10-17T07:53:38.828Z,101945.22
2022-10-17T07:56:40.937Z,101949.88
2022-10-17T07:59:43.229Z,101949.31
2022-10-17T08:02:45.639Z,101944.28
2022-10-17T08:05:48.097Z,101952.34
2022-10-17T08:08:50.295Z,101956.09
2022-10-17T08:11:52.756Z,101960.62
2022-10-17T08:14:54.816Z,101960.81
2022-10-17T08:17:57.122Z,101962.84
2022-10-17T08:21:00.909Z,101963.88
2022-10-17T08:24:03.566Z,101964.16
2022-10-17T08:27:11.218Z,101968.78
2022-10-17T08:30:13.864Z,101965.41
2022-10-17T08:33:15.951Z,101963.00
2022-10-17T08:36:21.471Z,101965.06
2022-10-17T08:39:23.501Z,101970.38
2022-10-17T08:42:53.294Z,101961.66
2022-10-17T08:46:07.936Z,101965.31
2022-10-17T08:57:16.039Z,101965.06
2022-10-17T09:24:38.068Z,101953.28
2022-10-17T09:27:48.743Z,101952.50
2022-10-17T09:30:59.443Z,101957.84
2022-10-17T09:34:02.976Z,101950.94
2022-10-17T09:37:13.035Z,101957.16
2022-10-17T09:40:26.741Z,101963.44
2022-10-17T09:43:29.081Z,101958.34
2022-10-17T09:46:39.076Z,101961.03
2022-10-17T09:49:43.994Z,101962.91
2022-10-17T09:52:48.677Z,101955.09
2022-10-17T09:56:02.749Z,101954.31
2022-10-17T09:59:05.063Z,101949.06
2022-10-17T10:02:10.199Z,101959.78
2022-10-17T10:05:20.986Z,101957.12
2022-10-17T10:08:26.296Z,101956.34
2022-10-17T10:11:49.178Z,101952.00
2022-10-17T10:14:54.698Z,101944.19
2022-10-17T10:17:57.652Z,101946.09
2022-10-17T10:21:04.367Z,101950.72
2022-10-17T10:24:13.271Z,101948.19
2022-10-17T10:27:17.611Z,101940.34
2022-10-17T10:30:25.863Z,101940.41
2022-10-17T10:33:30.772Z,101931.59
2022-10-17T10:36:49.890Z,101936.13
2022-10-17T10:39:54.252Z,101935.22
2022-10-17T10:43:03.966Z,101930.88
2022-10-17T10:46:36.393Z,101927.38
2022-10-17T10:49:39.530Z,101931.78
2022-10-17T10:52:50.178Z,101930.88
2022-10-17T10:55:58.514Z,101932.72
2022-10-17T10:59:09.437Z,101929.31
2022-10-17T11:02:20.237Z,101916.12
2022-10-17T11:05:40.254Z,101914.44
2022-10-17T11:09:32.949Z,101913.59
2022-10-17T11:12:48.532Z,101912.75
2022-10-17T11:16:00.954Z,101917.19
2022-10-17T11:19:14.504Z,101918.09
2022-10-17T11:22:29.127Z,101911.94
2022-10-17T11:25:38.012Z,101913.72
2022-10-17T11:28:40.745Z,101903.12
2022-10-17T11:31:50.349Z,101905.78
2022-10-17T11:35:04.141Z,101897.84
2022-10-17T11:38:17.432Z,101899.62
2022-10-17T11:41:31.343Z,101893.41
2022-10-17T11:44:38.900Z,101891.66
2022-10-17T11:47:47.502Z,101893.47
2022-10-17T11:54:29.436Z,101890.81
2022-10-17T11:57:56.620Z,101893.47
2022-10-17T12:01:17.720Z,101884.66
2022-10-17T12:04:38.121Z,101877.59
2022-10-17T12:07:54.907Z,101879.34
2022-10-17T12:11:01.245Z,101877.59
2022-10-17T12:14:23.686Z,101877.59
2022-10-17T12:17:33.949Z,101865.22
2022-10-17T12:20:37.997Z,101872.31
2022-10-17T12:23:41.173Z,101860.84
2022-10-17T12:26:43.252Z,101857.31
2022-10-17T12:29:45.578Z,101861.72
2022-10-17T12:33:25.611Z,101853.75
2022-10-17T12:36:30.722Z,101858.19
2022-10-17T12:39:38.673Z,101851.13
2022-10-17T12:42:49.665Z,101845.81
2022-10-17T12:45:56.047Z,101849.34
2022-10-17T12:49:04.428Z,101845.81
2022-10-17T12:52:17.201Z,101844.91
2022-10-17T12:55:23.554Z,101844.94
2022-10-17T12:58:25.741Z,101835.16
2022-10-17T13:01:31.793Z,101840.50
2022-10-17T13:04:36.701Z,101838.72
2022-10-17T13:07:43.542Z,101839.59
2022-10-17T13:10:51.661Z,101836.94
2022-10-17T13:13:58.905Z,101834.31
2022-10-17T13:17:03.856Z,101834.28
2022-10-17T13:20:27.682Z,101832.53
2022-10-17T13:23:35.077Z,101831.66
2022-10-17T13:26:37.373Z,101830.75
2022-10-17T13:29:44.368Z,101829.87
2022-10-17T13:32:46.560Z,101827.22
2022-10-17T13:35:59.898Z,101830.75
2022-10-17T13:39:13.653Z,101826.34
2022-10-17T13:42:26.386Z,101831.62
2022-10-17T13:45:30.317Z,101829.00
2022-10-17T13:48:36.563Z,101816.59
2022-10-17T13:51:44.450Z,101829.00
2022-10-17T13:54:49.093Z,101824.56
2022-10-17T13:57:52.441Z,101823.69
2022-10-17T14:00:54.820Z,101829.87
2022-10-17T14:04:08.491Z,101825.47
2022-10-17T14:07:26.348Z,101821.06
2022-10-17T14:10:31.746Z,101821.91
2022-10-17T14:13:35.478Z,101821.03
2022-10-17T14:16:41.333Z,101820.16
2022-10-17T14:19:46.037Z,101815.72
2022-10-17T14:23:17.875Z,101813.03
2022-10-17T14:26:21.857Z,101810.38
2022-10-17T14:29:33.216Z,101809.50
2022-10-17T14:32:37.451Z,101811.25
2022-10-17T14:35:41.853Z,101815.66
2022-10-17T14:38:52.452Z,101814.78
2022-10-17T14:41:55.321Z,101819.19
2022-10-17T14:45:11.502Z,101822.69
2022-10-17T14:48:20.323Z,101819.16
2022-10-17T14:51:22.835Z,101814.72
2022-10-17T14:54:29.082Z,101812.06
2022-10-17T14:57:34.383Z,101818.19
2022-10-17T15:00:36.680Z,101814.66
2022-10-17T15:03:38.786Z,101809.28
2022-10-17T15:06:41.233Z,101807.47
2022-10-17T15:09:44.853Z,101817.19
2022-10-17T15:12:56.197Z,101811.84
2022-10-17T15:16:02.079Z,101810.91
2022-10-17T15:19:04.411Z,101818.78
2022-10-17T15:22:06.510Z,101818.75
2022-10-17T15:25:09.290Z,101822.22
2022-10-17T15:28:12.957Z,101821.31
2022-10-17T15:31:18.470Z,101830.06
2022-10-17T15:34:20.505Z,101830.88
2022-10-17T15:37:25.002Z,101830.81
2022-10-17T15:40:29.130Z,101836.00
2022-10-17T15:43:31.442Z,101831.53
2022-10-17T15:46:35.428Z,101837.59
2022-10-17T15:49:37.747Z,101846.31
